createdAt,value
2023-02-06T00:01:52.614Z,102559.25
2023-02-06T00:04:21.189Z,102567.16
2023-02-06T00:06:52.237Z,102559.25
2023-02-06T00:09:20.386Z,102553.94
2023-02-06T00:11:49.702Z,102516.31
2023-02-06T00:14:18.075Z,102553.03
2023-02-06T00:16:46.029Z,102555.56
2023-02-06T00:19:16.740Z,102559.97
2023-02-06T00:21:45.287Z,102560.84
2023-02-06T00:24:13.348Z,102565.22
2023-02-06T00:26:41.274Z,102569.56
2023-02-06T00:29:10.786Z,102561.50
2023-02-06T00:31:39.015Z,102568.75
2023-02-06T00:34:09.583Z,102578.44
2023-02-06T00:36:37.450Z,102567.00
2023-02-06T00:39:05.579Z,102574.06
2023-02-06T00:41:33.543Z,102574.03
2023-02-06T00:44:01.589Z,102581.94
2023-02-06T00:46:33.666Z,102572.28
2023-02-06T00:49:01.848Z,102578.44
2023-02-06T00:51:32.402Z,102565.88
2023-02-06T00:54:04.154Z,102573.16
2023-02-06T00:56:32.185Z,102574.97
2023-02-06T00:59:00.181Z,102539.16
2023-02-06T01:01:28.368Z,102576.47
2023-02-06T01:03:57.635Z,102554.94
2023-02-06T01:06:26.020Z,102593.28
2023-02-06T01:08:54.109Z,102586.28
2023-02-06T01:11:25.428Z,102591.56
2023-02-06T01:13:55.327Z,102592.41
2023-02-06T01:16:25.389Z,102590.66
2023-02-06T01:18:57.348Z,102591.56
2023-02-06T01:21:26.288Z,102604.78
2023-02-06T01:23:55.511Z,102599.59
2023-02-06T01:26:28.215Z,102603.13
2023-02-06T01:28:58.890Z,102599.69
2023-02-06T01:31:28.724Z,102596.13
2023-02-06T01:34:01.578Z,102595.16
2023-02-06T01:36:29.925Z,102596.06
2023-02-06T01:38:58.460Z,102596.84
2023-02-06T01:41:26.598Z,102593.25
2023-02-06T01:44:10.808Z,102591.44
2023-02-06T01:46:39.363Z,102597.63
2023-02-06T01:49:11.182Z,102588.78
2023-02-06T01:51:40.085Z,102583.50
2023-02-06T01:54:10.134Z,102579.06
2023-02-06T01:56:42.747Z,102571.97
2023-02-06T01:59:13.592Z,102569.47
2023-02-06T02:01:42.016Z,102568.47
2023-02-06T02:04:17.429Z,102572.78
2023-02-06T02:06:47.218Z,102570.09
2023-02-06T02:09:15.834Z,102574.47
2023-02-06T02:11:43.904Z,102576.19
2023-02-06T02:14:15.867Z,102581.47
2023-02-06T02:16:59.965Z,102572.63
2023-02-06T02:20:13.332Z,102578.72
2023-02-06T02:22:51.077Z,102577.94
2023-02-06T02:25:38.696Z,102576.28
2023-02-06T02:28:31.635Z,102577.09
2023-02-06T02:31:20.833Z,102574.47
2023-02-06T02:34:11.591Z,102580.63
2023-02-06T02:36:47.562Z,102579.78
2023-02-06T02:39:24.104Z,102574.50
2023-02-06T02:41:57.467Z,102567.47
2023-02-06T02:44:34.424Z,102563.97
2023-02-06T02:47:09.152Z,102570.91
2023-02-06T02:49:40.755Z,102571.78
2023-02-06T02:52:13.449Z,102564.03
2023-02-06T02:54:41.573Z,102560.47
2023-02-06T02:57:15.274Z,102564.06
2023-02-06T02:59:45.039Z,102568.41
2023-02-06T03:02:16.791Z,102570.09
2023-02-06T03:07:44.690Z,102581.41
2023-02-06T03:10:19.721Z,102577.69
2023-02-06T03:13:00.434Z,102574.13
2023-02-06T03:15:37.328Z,102574.13
2023-02-06T03:18:12.233Z,102574.97
2023-02-06T03:20:43.599Z,102576.75
2023-02-06T03:23:17.274Z,102574.19
2023-02-06T03:25:47.851Z,102575.13
2023-02-06T03:28:20.037Z,102567.94
2023-02-06T03:30:54.087Z,102571.66
2023-02-06T03:33:29.884Z,102577.78
2023-02-06T03:35:58.408Z,102574.19
2023-02-06T03:38:29.185Z,102575.00
2023-02-06T03:41:01.296Z,102579.47
2023-02-06T03:43:31.478Z,102574.97
2023-02-06T03:46:05.109Z,102582.00
2023-02-06T03:48:42.236Z,102571.25
2023-02-06T03:51:16.453Z,102577.53
2023-02-06T03:53:51.003Z,102581.06
2023-02-06T03:56:27.652Z,102581.13
2023-02-06T03:58:55.800Z,102576.59
2023-02-06T04:01:24.655Z,102587.13
2023-02-06T04:03:52.729Z,102583.47
2023-02-06T04:06:21.028Z,102588.03
2023-02-06T04:08:50.293Z,102581.66
2023-02-06T04:11:18.348Z,102586.19
2023-02-06T04:13:46.183Z,102581.75
2023-02-06T04:16:14.066Z,102580.78
2023-02-06T04:18:42.068Z,102578.97
2023-02-06T04:21:10.096Z,102579.25
2023-02-06T04:23:38.149Z,102589.88
2023-02-06T04:26:07.522Z,102576.75
2023-02-06T04:28:35.562Z,102577.50
2023-02-06T04:31:03.710Z,102578.31
2023-02-06T04:33:31.706Z,102574.84
2023-02-06T04:35:59.711Z,102581.00
2023-02-06T04:38:27.680Z,102586.25
2023-02-06T04:40:55.702Z,102581.84
2023-02-06T04:43:27.576Z,102579.34
2023-02-06T04:45:57.885Z,102580.94
2023-02-06T04:48:28.460Z,102585.28
2023-02-06T04:50:56.942Z,102577.97
2023-02-06T04:53:25.140Z,102578.81
2023-02-06T04:55:54.954Z,102574.53
2023-02-06T04:58:23.082Z,102570.19
2023-02-06T05:00:52.396Z,102570.97
2023-02-06T05:03:20.782Z,102570.84
2023-02-06T05:05:48.704Z,102583.31
2023-02-06T05:08:17.138Z,102577.19
2023-02-06T05:10:47.403Z,102587.78
2023-02-06T05:13:17.915Z,102594.09
2023-02-06T05:15:46.032Z,102589.41
2023-02-06T05:18:15.987Z,102588.50
2023-02-06T05:20:48.489Z,102590.19
2023-02-06T05:23:16.475Z,102585.53
2023-02-06T05:25:44.753Z,102590.97
2023-02-06T05:28:12.796Z,102588.38
2023-02-06T05:30:41.129Z,102589.28
2023-02-06T05:33:09.298Z,102585.81
2023-02-06T05:35:40.316Z,102589.34
2023-02-06T05:38:08.885Z,102587.56
2023-02-06T05:40:39.308Z,102593.53
2023-02-06T05:43:07.735Z,102591.63
2023-02-06T05:45:36.251Z,102588.91
2023-02-06T05:48:04.843Z,102586.19
2023-02-06T05:50:32.880Z,102584.31
2023-02-06T05:53:05.039Z,102584.28
2023-02-06T05:55:33.035Z,102589.50
2023-02-06T05:58:01.039Z,102582.47
2023-02-06T06:00:28.932Z,102575.41
2023-02-06T06:02:57.128Z,102576.25
2023-02-06T06:05:25.857Z,102570.03
2023-02-06T06:07:56.627Z,102565.59
2023-02-06T06:10:25.966Z,102570.84
2023-02-06T06:12:53.968Z,102567.41
2023-02-06T06:15:22.058Z,102565.66
2023-02-06T06:17:52.709Z,102576.13
2023-02-06T06:20:24.069Z,102579.50
2023-02-06T06:22:54.260Z,102568.97
2023-02-06T06:25:22.191Z,102560.03
2023-02-06T06:27:51.968Z,102575.97
2023-02-06T06:30:22.093Z,102569.63
2023-02-06T06:32:50.154Z,102568.63
2023-02-06T06:35:18.604Z,102563.31
2023-02-06T06:37:46.868Z,102571.22
2023-02-06T06:40:15.045Z,102569.50
2023-02-06T06:42:43.507Z,102566.13
2023-02-06T06:45:12.807Z,102571.41
2023-02-06T06:47:40.937Z,102564.41
2023-02-06T06:50:09.556Z,102575.84
2023-02-06T06:52:37.727Z,102574.88
2023-02-06T06:55:06.345Z,102577.53
2023-02-06T06:57:34.715Z,102585.50
2023-02-06T07:00:03.082Z,102593.47
2023-02-06T07:02:32.586Z,102588.09
2023-02-06T07:05:01.030Z,102590.84
2023-02-06T07:07:29.113Z,102595.22
2023-02-06T07:09:57.349Z,102596.00
2023-02-06T07:12:25.461Z,102582.47
2023-02-06T07:14:53.630Z,102596.94
2023-02-06T07:17:23.929Z,102579.16
2023-02-06T07:19:53.476Z,102590.97
2023-02-06T07:22:21.462Z,102603.34
2023-02-06T07:24:49.718Z,102605.28
2023-02-06T07:27:20.339Z,102605.38
2023-02-06T07:29:48.306Z,102604.63
2023-02-06T07:32:16.401Z,102597.59
2023-02-06T07:34:49.311Z,102611.88
2023-02-06T07:37:18.996Z,102618.78
2023-02-06T07:39:49.153Z,102600.13
2023-02-06T07:42:17.411Z,102615.38
2023-02-06T07:44:53.940Z,102615.50
2023-02-06T07:47:22.041Z,102608.38
2023-02-06T07:49:50.169Z,102603.19
2023-02-06T07:52:21.924Z,102608.22
2023-02-06T07:54:49.841Z,102602.16
2023-02-06T07:57:17.847Z,102599.38
2023-02-06T07:59:45.854Z,102597.56
2023-02-06T08:02:14.367Z,102594.09
2023-02-06T08:04:42.785Z,102588.09
2023-02-06T08:08:38.198Z,102590.72
2023-02-06T08:11:10.057Z,102583.97
2023-02-06T08:13:38.513Z,102591.75
2023-02-06T08:16:07.835Z,102592.03
2023-02-06T08:18:36.240Z,102583.47
2023-02-06T08:21:08.444Z,102583.72
2023-02-06T08:23:40.393Z,102586.47
2023-02-06T08:26:11.331Z,102594.59
2023-02-06T08:28:42.277Z,102590.63
2023-02-06T08:31:12.704Z,102595.03
2023-02-06T08:33:43.279Z,102588.00
2023-02-06T08:36:12.398Z,102594.47
2023-02-06T08:38:42.444Z,102591.34
2023-02-06T08:41:18.156Z,102586.22
2023-02-06T08:43:50.102Z,102587.84
2023-02-06T08:46:20.079Z,102584.59
2023-02-06T08:48:48.417Z,102592.56
2023-02-06T08:51:19.422Z,102589.53
2023-02-06T08:53:49.143Z,102595.63
2023-02-06T08:56:20.149Z,102586.78
2023-02-06T08:58:48.201Z,102580.75
2023-02-06T09:01:16.643Z,102582.13
2023-02-06T09:03:45.772Z,102576.50
2023-02-06T09:06:14.799Z,102581.66
2023-02-06T09:08:45.559Z,102587.97
2023-02-06T09:11:17.361Z,102590.19
2023-02-06T09:13:49.207Z,102575.34
2023-02-06T09:16:19.102Z,102587.97
2023-02-06T09:18:53.244Z,102584.88
2023-02-06T09:21:24.659Z,102580.53
2023-02-06T09:23:55.145Z,102577.44
2023-02-06T09:26:26.712Z,102587.47
2023-02-06T09:28:56.454Z,102548.47
2023-02-06T09:31:25.485Z,102579.78
2023-02-06T09:33:53.952Z,102579.13
2023-02-06T09:36:23.066Z,102581.75
2023-02-06T09:38:57.149Z,102584.19
2023-02-06T09:41:32.191Z,102579.91
2023-02-06T09:44:07.747Z,102581.56
2023-02-06T09:46:37.363Z,102578.97
2023-02-06T09:49:13.508Z,102581.53
2023-02-06T09:51:56.451Z,102580.59
2023-02-06T09:54:31.109Z,102579.19
2023-02-06T09:57:07.529Z,102586.41
2023-02-06T09:59:40.587Z,102582.66
2023-02-06T10:02:32.865Z,102578.28
2023-02-06T10:05:08.389Z,102569.53
2023-02-06T10:07:53.679Z,102573.63
2023-02-06T10:10:28.379Z,102558.47
2023-02-06T10:13:04.450Z,102546.09
2023-02-06T10:15:35.412Z,102549.75
2023-02-06T10:18:08.127Z,102545.84
2023-02-06T10:20:40.657Z,102549.50
2023-02-06T10:23:19.444Z,102541.91
2023-02-06T10:25:53.825Z,102542.44
2023-02-06T10:28:27.012Z,102535.63
2023-02-06T10:31:13.855Z,102544.41
2023-02-06T10:33:48.208Z,102537.03
2023-02-06T10:36:33.193Z,102537.19
2023-02-06T10:39:17.988Z,102532.59
2023-02-06T10:41:54.545Z,102530.06
2023-02-06T10:44:30.844Z,102519.50
2023-02-06T10:47:10.473Z,102514.09
2023-02-06T10:49:45.080Z,102513.78
2023-02-06T10:52:22.443Z,102516.97
2023-02-06T10:54:56.566Z,102516.53
2023-02-06T10:57:29.878Z,102521.38
2023-02-06T11:00:02.135Z,102521.06
2023-02-06T11:02:40.064Z,102499.63
2023-02-06T11:05:11.317Z,102507.25
2023-02-06T11:07:45.417Z,102503.97
2023-02-06T11:10:15.947Z,102504.88
2023-02-06T11:12:48.026Z,102506.41
2023-02-06T11:15:25.875Z,102495.50
2023-02-06T11:17:55.730Z,102479.84
2023-02-06T11:20:29.393Z,102477.97
2023-02-06T11:23:15.803Z,102472.81
2023-02-06T11:25:45.096Z,102469.88
2023-02-06T11:28:19.630Z,102467.38
2023-02-06T11:30:59.782Z,102468.13
2023-02-06T11:33:42.828Z,102476.66
2023-02-06T11:36:30.514Z,102464.41
2023-02-06T11:39:01.653Z,102468.34
2023-02-06T11:41:33.286Z,102460.16
2023-02-06T11:44:06.714Z,102454.72
2023-02-06T11:46:38.836Z,102451.16
2023-02-06T11:49:21.998Z,102447.78
2023-02-06T11:51:53.748Z,102446.53
2023-02-06T11:54:31.210Z,102450.38
2023-02-06T11:57:04.260Z,102448.47
2023-02-06T11:59:34.886Z,102444.22
2023-02-06T12:02:26.492Z,102439.28
2023-02-06T12:05:00.977Z,102444.41
2023-02-06T12:07:37.126Z,102446.00
2023-02-06T12:10:14.589Z,102440.66
2023-02-06T12:12:47.153Z,102440.81
2023-02-06T12:15:45.610Z,102439.41
2023-02-06T12:18:16.270Z,102435.91
2023-02-06T12:20:50.205Z,102415.56
2023-02-06T12:23:23.623Z,102414.38
2023-02-06T12:25:56.634Z,102413.50
2023-02-06T12:28:30.147Z,102423.25
2023-02-06T12:31:03.770Z,102427.72
2023-02-06T12:33:38.420Z,102420.88
2023-02-06T12:36:12.979Z,102407.06
2023-02-06T12:38:45.945Z,102413.22
2023-02-06T12:41:40.145Z,102416.63
2023-02-06T12:44:19.393Z,102401.66
2023-02-06T12:46:52.972Z,102408.38
2023-02-06T12:49:26.503Z,102407.63
2023-02-06T12:52:02.841Z,102406.78
2023-02-06T12:54:34.913Z,102399.38
2023-02-06T12:57:08.077Z,102395.47
2023-02-06T12:59:59.845Z,102376.91
2023-02-06T13:02:53.090Z,102387.19
2023-02-06T13:05:26.248Z,102382.19
2023-02-06T13:09:42.257Z,102388.84
2023-02-06T13:12:14.981Z,102397.72
2023-02-06T13:14:48.836Z,102393.78
2023-02-06T13:17:20.609Z,102388.72
2023-02-06T13:20:00.573Z,102387.13
2023-02-06T13:22:40.483Z,102375.94
2023-02-06T13:25:55.925Z,102378.16
2023-02-06T13:29:09.733Z,102376.81
2023-02-06T13:31:42.051Z,102383.22
2023-02-06T13:34:17.386Z,102383.56
2023-02-06T13:36:54.063Z,102387.56
2023-02-06T13:39:31.905Z,102400.50
2023-02-06T13:42:31.409Z,102385.38
2023-02-06T13:45:02.301Z,102380.00
2023-02-06T13:48:02.707Z,102373.34
2023-02-06T13:50:46.819Z,102366.44
2023-02-06T13:53:37.384Z,102362.38
2023-02-06T13:56:28.296Z,102367.69
2023-02-06T13:59:00.527Z,102358.16
2023-02-06T14:01:31.067Z,102365.97
2023-02-06T14:04:01.286Z,102370.41
2023-02-06T14:06:49.930Z,102365.91
2023-02-06T14:09:55.134Z,102364.16
2023-02-06T14:12:35.578Z,102357.72
2023-02-06T14:15:13.272Z,102372.91
2023-02-06T14:17:59.808Z,102370.41
2023-02-06T14:20:40.424Z,102381.16
2023-02-06T14:23:21.934Z,102382.91
2023-02-06T14:26:04.315Z,102377.53
2023-02-06T14:28:44.273Z,102379.25
2023-02-06T14:31:24.900Z,102361.41
2023-02-06T14:34:07.774Z,102367.50
2023-02-06T14:36:48.319Z,102347.84
2023-02-06T14:39:47.604Z,102361.03
2023-02-06T14:42:21.937Z,102363.53
2023-02-06T14:44:57.049Z,102356.53
2023-02-06T14:47:30.358Z,102341.47
2023-02-06T14:49:59.854Z,102348.25
2023-02-06T14:52:33.563Z,102352.75
2023-02-06T14:55:02.039Z,102349.81
2023-02-06T14:57:32.481Z,102343.47
2023-02-06T15:00:02.771Z,102339.84
2023-02-06T15:02:34.459Z,102330.75
2023-02-06T15:05:06.834Z,102328.81
2023-02-06T15:07:38.528Z,102339.38
2023-02-06T15:10:10.384Z,102344.63
2023-02-06T15:12:39.276Z,102319.88
2023-02-06T15:15:19.253Z,102328.63
2023-02-06T15:17:58.061Z,102326.00
2023-02-06T15:20:29.454Z,102324.06
2023-02-06T15:23:17.019Z,102323.16
2023-02-06T15:25:58.215Z,102310.69
2023-02-06T15:28:33.356Z,102309.81
2023-02-06T15:31:03.078Z,102314.91
2023-02-06T15:33:34.125Z,102313.78
2023-02-06T15:36:05.016Z,102317.94
2023-02-06T15:38:37.375Z,102323.97
2023-02-06T15:41:08.476Z,102321.19
2023-02-06T15:43:37.349Z,102318.66
2023-02-06T15:46:11.943Z,102316.09
2023-02-06T15:48:43.775Z,102317.84
2023-02-06T15:51:21.614Z,102314.00
2023-02-06T15:54:06.585Z,102315.66
2023-02-06T15:56:39.795Z,102320.31
2023-02-06T15:59:16.252Z,102316.78
2023-02-06T16:01:45.192Z,102320.13
2023-02-06T16:04:17.284Z,102320.88
2023-02-06T16:06:47.570Z,102319.59
2023-02-06T16:09:22.137Z,102325.69
2023-02-06T16:11:56.351Z,102310.22
2023-02-06T16:14:35.333Z,102316.06
2023-02-06T16:17:06.849Z,102321.34
2023-02-06T16:19:41.910Z,102333.34
2023-02-06T16:22:18.683Z,102325.66
2023-02-06T16:24:51.670Z,102336.78
2023-02-06T16:27:25.819Z,102342.28
2023-02-06T16:29:58.407Z,102344.59
2023-02-06T16:32:29.824Z,102353.31
2023-02-06T16:35:01.302Z,102353.09
2023-02-06T16:37:31.740Z,102355.94
2023-02-06T16:40:02.630Z,102357.84
2023-02-06T16:42:35.797Z,102351.66
2023-02-06T16:45:07.628Z,102359.50
2023-02-06T16:47:35.597Z,102372.78
2023-02-06T16:50:04.196Z,102366.78
2023-02-06T16:52:35.413Z,102375.81
2023-02-06T16:55:05.878Z,102367.00
2023-02-06T16:57:38.155Z,102376.53
2023-02-06T17:00:17.007Z,102373.69
2023-02-06T17:02:48.874Z,102380.63
2023-02-06T17:05:20.530Z,102377.34
2023-02-06T17:07:51.770Z,102383.03
2023-02-06T17:10:25.028Z,102381.44
2023-02-06T17:12:53.199Z,102389.06
2023-02-06T17:15:23.580Z,102380.78
2023-02-06T17:17:53.751Z,102383.25
2023-02-06T17:20:31.138Z,102387.59
2023-02-06T17:22:59.334Z,102384.94
2023-02-06T17:25:28.872Z,102380.72
2023-02-06T17:27:57.164Z,102375.41
2023-02-06T17:30:26.587Z,102384.97
2023-02-06T17:32:55.088Z,102363.31
2023-02-06T17:35:23.170Z,102380.41
2023-02-06T17:37:54.016Z,102383.63
2023-02-06T17:40:26.775Z,102393.28
2023-02-06T17:43:00.355Z,102385.66
2023-02-06T17:45:29.161Z,102371.81
2023-02-06T17:47:57.449Z,102372.78
2023-02-06T17:50:28.067Z,102381.63
2023-02-06T17:52:57.478Z,102379.91
2023-02-06T17:55:26.873Z,102372.84
2023-02-06T17:57:55.557Z,102372.78
2023-02-06T18:00:25.716Z,102371.59
2023-02-06T18:02:55.476Z,102370.44
2023-02-06T18:05:24.294Z,102345.53
2023-02-06T18:10:40.417Z,102366.31
2023-02-06T18:13:08.544Z,102377.72
2023-02-06T18:15:37.209Z,102358.16
2023-02-06T18:18:05.597Z,102353.69
2023-02-06T18:20:36.758Z,102365.97
2023-02-06T18:23:07.903Z,102372.28
2023-02-06T18:25:43.184Z,102368.00
2023-02-06T18:28:13.888Z,102361.94
2023-02-06T18:30:42.608Z,102370.78
2023-02-06T18:33:12.776Z,102365.34
2023-02-06T18:35:42.509Z,102368.84
2023-02-06T18:38:10.967Z,102357.31
2023-02-06T18:40:39.854Z,102366.91
2023-02-06T18:43:08.879Z,102362.31
2023-02-06T18:45:39.132Z,102362.00
2023-02-06T18:48:10.280Z,102356.50
2023-02-06T18:50:42.362Z,102354.44
2023-02-06T18:53:11.308Z,102348.75
2023-02-06T18:55:40.400Z,102350.41
2023-02-06T18:58:12.160Z,102355.41
2023-02-06T19:00:43.305Z,102349.81
2023-02-06T19:03:11.315Z,102346.91
2023-02-06T19:05:39.342Z,102352.09
2023-02-06T19:08:07.599Z,102348.94
2023-02-06T19:10:36.201Z,102353.00
2023-02-06T19:13:05.825Z,102365.66
2023-02-06T19:15:38.210Z,102363.34
2023-02-06T19:18:07.757Z,102358.97
2023-02-06T19:20:36.317Z,102351.78
2023-02-06T19:23:04.573Z,102362.31
2023-02-06T19:25:32.905Z,102354.53
2023-02-06T19:28:00.944Z,102367.25
2023-02-06T19:30:29.166Z,102369.66
2023-02-06T19:33:00.987Z,102379.53
2023-02-06T19:35:28.955Z,102375.19
2023-02-06T19:38:00.796Z,102371.47
2023-02-06T19:40:31.575Z,102372.28
2023-02-06T19:42:59.590Z,102364.56
2023-02-06T19:45:27.741Z,102396.66
2023-02-06T19:47:57.106Z,102395.44
2023-02-06T19:50:26.493Z,102403.56
2023-02-06T19:52:55.041Z,102409.75
2023-02-06T19:55:25.569Z,102403.59
2023-02-06T19:57:54.026Z,102400.69
2023-02-06T20:00:22.175Z,102400.94
2023-02-06T20:02:53.078Z,102386.28
2023-02-06T20:05:26.276Z,102400.50
2023-02-06T20:07:55.873Z,102413.31
2023-02-06T20:10:24.996Z,102425.94
2023-02-06T20:12:53.584Z,102429.34
2023-02-06T20:15:22.703Z,102437.16
2023-02-06T20:17:52.182Z,102431.00
2023-02-06T20:20:20.999Z,102429.00
2023-02-06T20:22:49.188Z,102435.03
2023-02-06T20:25:21.697Z,102435.44
2023-02-06T20:27:49.913Z,102430.13
2023-02-06T20:30:18.986Z,102420.53
2023-02-06T20:32:47.035Z,102428.06
2023-02-06T20:35:17.987Z,102435.13
2023-02-06T20:37:46.235Z,102427.44
2023-02-06T20:40:14.566Z,102428.66
2023-02-06T20:42:46.266Z,102430.34
2023-02-06T20:45:14.487Z,102431.03
2023-02-06T20:47:42.578Z,102438.91
2023-02-06T20:50:11.067Z,102426.66
2023-02-06T20:52:39.545Z,102439.94
2023-02-06T20:55:07.776Z,102432.56
2023-02-06T20:57:36.508Z,102429.94
2023-02-06T21:00:07.166Z,102429.56
2023-02-06T21:02:35.520Z,102433.00
2023-02-06T21:05:03.687Z,102435.50
2023-02-06T21:07:31.889Z,102426.94
2023-02-06T21:10:00.100Z,102428.31
2023-02-06T21:12:28.231Z,102425.06
2023-02-06T21:14:58.728Z,102436.91
2023-02-06T21:17:30.827Z,102438.44
2023-02-06T21:19:59.176Z,102435.34
2023-02-06T21:22:31.735Z,102432.06
2023-02-06T21:25:00.321Z,102426.56
2023-02-06T21:27:29.220Z,102430.47
2023-02-06T21:30:00.309Z,102422.25
2023-02-06T21:32:28.375Z,102420.19
2023-02-06T21:34:58.002Z,102420.41
2023-02-06T21:37:25.930Z,102410.69
2023-02-06T21:39:54.054Z,102412.16
2023-02-06T21:42:26.179Z,102408.66
2023-02-06T21:44:54.136Z,102406.72
2023-02-06T21:47:22.437Z,102403.13
2023-02-06T21:49:50.472Z,102407.34
2023-02-06T21:52:20.069Z,102421.41
2023-02-06T21:54:48.452Z,102421.13
2023-02-06T21:57:19.078Z,102420.81
2023-02-06T21:59:49.840Z,102414.94
2023-02-06T22:02:18.732Z,102421.84
2023-02-06T22:04:46.851Z,102418.66
2023-02-06T22:07:15.462Z,102423.69
2023-02-06T22:09:45.035Z,102414.25
2023-02-06T22:12:13.201Z,102418.31
2023-02-06T22:14:41.274Z,102431.53
2023-02-06T22:17:09.584Z,102431.63
2023-02-06T22:19:38.129Z,102421.03
2023-02-06T22:22:06.275Z,102415.03
2023-02-06T22:24:34.350Z,102413.16
2023-02-06T22:27:03.932Z,102421.69
2023-02-06T22:29:32.164Z,102413.81
2023-02-06T22:32:04.693Z,102407.81
2023-02-06T22:34:33.376Z,102401.63
2023-02-06T22:37:01.551Z,102407.69
2023-02-06T22:39:29.497Z,102405.94
2023-02-06T22:41:59.758Z,102414.25
2023-02-06T22:44:29.286Z,102405.09
2023-02-06T22:46:57.598Z,102419.09
2023-02-06T22:49:26.361Z,102420.63
2023-02-06T22:51:54.508Z,102432.81
2023-02-06T22:54:22.595Z,102436.50
2023-02-06T22:56:51.126Z,102438.06
2023-02-06T22:59:23.462Z,102429.28
2023-02-06T23:01:57.810Z,102429.69
2023-02-06T23:04:30.572Z,102444.38
2023-02-06T23:07:01.128Z,102448.19
2023-02-06T23:11:38.555Z,102441.94
2023-02-06T23:14:07.852Z,102433.06
2023-02-06T23:16:36.951Z,102439.41
2023-02-06T23:19:07.032Z,102433.31
2023-02-06T23:21:37.023Z,102425.34
2023-02-06T23:24:06.498Z,102431.25
2023-02-06T23:26:35.222Z,102428.47
2023-02-06T23:29:07.849Z,102436.91
2023-02-06T23:31:37.398Z,102449.25
2023-02-06T23:34:05.972Z,102452.63
2023-02-06T23:36:34.261Z,102452.63
2023-02-06T23:39:05.707Z,102401.84
2023-02-06T23:41:34.222Z,102440.03
2023-02-06T23:44:06.439Z,102435.22
2023-02-06T23:46:38.766Z,102431.00
2023-02-06T23:49:07.342Z,102433.91
2023-02-06T23:51:36.417Z,102439.31
2023-02-06T23:54:05.302Z,102448.75
2023-02-06T23:56:33.567Z,102444.25
2023-02-06T23:59:04.225Z,102452.28
